Sandy Ridge, Pennsylvania
Current Conditions -  °F | °C
As of 9:54 AM on Friday 24 Oct 2014 (Local Time) from KFIG Reporting Station
Clear Clear  
Wind Chill: 50°   Ceiling: Unl
Heat Index: 50°   Visibility: 10mi
Dew Point: 40°   Wind: 3mph
Humidity: 68%   Direction: NA
Pressure: 30.04"   Gusts: NA
Location:  40.81°N, 78.24°W
Report Text: KFIG 241354Z AUTO VRB03KT 10SM CLR 10/04 A3004 RMK AO2 SLP176 T01000044
Loading
Personal Weather Stations






























Interactive Weather Map
Tropical Storm Tracking
New forecast layout! Learn more

10-Day Weather Forecast

Advertisements
Track Severe Weather on mobile